createdAt,value
2019-01-19T00:02:18.976Z,-3.99
2019-01-19T00:06:23.893Z,-3.98
2019-01-19T00:10:25.084Z,-4.03
2019-01-19T00:14:08.868Z,-4.09
2019-01-19T00:18:12.760Z,-4.14
2019-01-19T00:21:59.292Z,-4.15
2019-01-19T00:25:38.148Z,-4.21
2019-01-19T00:29:17.944Z,-4.26
2019-01-19T00:33:21.597Z,-4.32
2019-01-19T00:37:01.135Z,-4.38
2019-01-19T00:41:07.667Z,-4.37
2019-01-19T00:45:01.329Z,-4.39
2019-01-19T00:48:53.984Z,-4.43
2019-01-19T00:52:49.458Z,-4.48
2019-01-19T00:56:31.209Z,-4.45
2019-01-19T00:59:50.119Z,-4.41
2019-01-19T01:03:38.063Z,-4.41
2019-01-19T01:07:17.529Z,-4.42
2019-01-19T01:10:52.443Z,-4.42
2019-01-19T01:14:49.440Z,-4.48
2019-01-19T01:18:25.669Z,-4.50
2019-01-19T01:22:19.301Z,-4.56
2019-01-19T01:26:34.618Z,-4.57
2019-01-19T01:30:24.958Z,-4.52
2019-01-19T01:34:26.358Z,-4.52
2019-01-19T01:38:00.153Z,-4.53
2019-01-19T01:41:44.691Z,-4.55
2019-01-19T01:45:40.512Z,-4.47
2019-01-19T01:49:36.723Z,-4.41
2019-01-19T01:53:19.327Z,-4.40
2019-01-19T01:56:35.254Z,-4.36
2019-01-19T02:00:58.153Z,-4.33
2019-01-19T02:04:54.861Z,-4.31
2019-01-19T02:08:22.475Z,-4.39
2019-01-19T02:12:10.876Z,-4.45
2019-01-19T02:15:53.176Z,-4.56
2019-01-19T02:19:57.721Z,-4.64
2019-01-19T02:23:49.311Z,-4.80
2019-01-19T02:27:51.115Z,-4.71
2019-01-19T02:31:37.320Z,-4.71
2019-01-19T02:35:39.044Z,-4.83
2019-01-19T02:39:01.280Z,-4.79
2019-01-19T02:42:41.086Z,-4.80
2019-01-19T02:46:36.616Z,-4.88
2019-01-19T02:50:13.501Z,-4.95
2019-01-19T02:54:23.390Z,-4.97
2019-01-19T02:58:20.821Z,-4.99
2019-01-19T03:02:09.837Z,-4.99
2019-01-19T03:05:40.529Z,-5.11
2019-01-19T03:09:19.421Z,-5.19
2019-01-19T03:12:59.875Z,-5.17
2019-01-19T03:17:00.609Z,-5.22
2019-01-19T03:20:42.584Z,-5.17
2019-01-19T03:24:19.296Z,-5.22
2019-01-19T03:28:06.306Z,-5.38
2019-01-19T03:31:53.022Z,-5.44
2019-01-19T03:35:21.933Z,-5.39
2019-01-19T03:39:07.186Z,-5.33
2019-01-19T03:43:15.025Z,-5.32
2019-01-19T03:46:51.480Z,-5.33
2019-01-19T03:50:18.480Z,-5.33
2019-01-19T03:54:05.162Z,-5.36
2019-01-19T03:57:41.444Z,-5.36
2019-01-19T04:01:30.176Z,-5.36
2019-01-19T04:05:05.701Z,-5.36
2019-01-19T04:08:52.927Z,-5.37
2019-01-19T04:12:51.078Z,-5.41
2019-01-19T04:16:27.123Z,-5.51
2019-01-19T04:20:02.431Z,-5.48
2019-01-19T04:23:18.021Z,-5.46
2019-01-19T04:26:39.401Z,-5.48
2019-01-19T04:29:54.739Z,-5.62
2019-01-19T04:33:09.990Z,-5.54
2019-01-19T04:36:25.646Z,-5.50
2019-01-19T04:39:40.897Z,-5.56
2019-01-19T04:42:56.152Z,-5.56
2019-01-19T04:46:11.508Z,-5.53
2019-01-19T04:49:27.100Z,-5.47
2019-01-19T04:52:42.533Z,-5.43
2019-01-19T04:55:57.666Z,-5.46
2019-01-19T04:59:13.125Z,-5.48
2019-01-19T05:02:28.344Z,-5.49
2019-01-19T05:05:43.820Z,-5.51
2019-01-19T05:08:59.282Z,-5.50
2019-01-19T05:12:14.446Z,-5.52
2019-01-19T05:15:30.467Z,-5.48
2019-01-19T05:18:45.843Z,-5.49
2019-01-19T05:22:01.085Z,-5.55
2019-01-19T05:25:16.655Z,-5.58
2019-01-19T05:28:32.206Z,-5.71
2019-01-19T05:31:47.879Z,-5.78
2019-01-19T05:35:03.538Z,-5.75
2019-01-19T05:38:18.990Z,-5.73
2019-01-19T05:41:34.385Z,-5.72
2019-01-19T05:44:49.903Z,-5.70
2019-01-19T05:48:05.351Z,-5.76
2019-01-19T05:51:20.482Z,-5.83
2019-01-19T05:54:35.853Z,-5.86
2019-01-19T05:57:51.412Z,-5.85
2019-01-19T06:01:06.870Z,-5.94
2019-01-19T06:04:22.215Z,-5.96
2019-01-19T06:07:37.678Z,-5.95
2019-01-19T06:10:53.574Z,-5.94
2019-01-19T06:14:08.671Z,-5.98
2019-01-19T06:17:24.202Z,-6.02
2019-01-19T06:20:39.686Z,-6.08
2019-01-19T06:23:55.051Z,-6.10
2019-01-19T06:27:10.504Z,-6.11
2019-01-19T06:30:26.160Z,-6.10
2019-01-19T06:33:59.311Z,-6.20
2019-01-19T06:37:14.669Z,-6.15
2019-01-19T06:40:30.216Z,-6.22
2019-01-19T06:43:45.702Z,-6.18
2019-01-19T06:47:01.864Z,-6.27
2019-01-19T06:50:16.978Z,-6.28
2019-01-19T06:53:32.308Z,-6.26
2019-01-19T06:56:47.810Z,-6.24
2019-01-19T07:00:03.361Z,-6.27
2019-01-19T07:03:18.727Z,-6.20
2019-01-19T07:06:34.290Z,-6.23
2019-01-19T07:09:49.626Z,-6.16
2019-01-19T07:13:05.110Z,-6.11
2019-01-19T07:16:20.277Z,-6.18
2019-01-19T07:19:35.784Z,-6.05
2019-01-19T07:22:51.453Z,-5.97
2019-01-19T07:26:06.892Z,-5.96
2019-01-19T07:29:22.188Z,-5.93
2019-01-19T07:32:38.279Z,-5.90
2019-01-19T07:35:53.477Z,-5.89
2019-01-19T07:39:08.737Z,-5.85
2019-01-19T07:42:24.365Z,-5.89
2019-01-19T07:45:39.730Z,-6.03
2019-01-19T07:48:55.477Z,-5.95
2019-01-19T07:52:11.039Z,-5.92
2019-01-19T07:55:27.011Z,-5.84
2019-01-19T07:58:42.473Z,-5.81
2019-01-19T08:01:57.946Z,-5.86
2019-01-19T08:05:13.365Z,-5.84
2019-01-19T08:08:28.840Z,-5.72
2019-01-19T08:11:44.335Z,-5.65
2019-01-19T08:14:59.446Z,-5.58
2019-01-19T08:18:14.758Z,-5.57
2019-01-19T08:21:30.103Z,-5.56
2019-01-19T08:24:45.698Z,-5.51
2019-01-19T08:28:01.418Z,-5.44
2019-01-19T08:31:17.026Z,-5.37
2019-01-19T08:34:32.575Z,-5.35
2019-01-19T08:37:50.172Z,-5.30
2019-01-19T08:41:05.629Z,-5.24
2019-01-19T08:44:22.714Z,-5.14
2019-01-19T08:47:37.837Z,-5.03
2019-01-19T08:50:53.421Z,-4.99
2019-01-19T08:54:08.484Z,-4.84
2019-01-19T08:57:24.242Z,-4.78
2019-01-19T09:00:39.803Z,-4.71
2019-01-19T09:03:55.275Z,-4.53
2019-01-19T09:07:10.819Z,-4.42
2019-01-19T09:10:26.263Z,-4.30
2019-01-19T09:13:41.728Z,-4.13
2019-01-19T09:16:58.201Z,-3.88
2019-01-19T09:20:14.602Z,-3.51
2019-01-19T09:23:34.238Z,-3.10
2019-01-19T09:26:49.253Z,-2.76
2019-01-19T09:30:08.098Z,-2.51
2019-01-19T09:33:23.454Z,-2.41
2019-01-19T09:36:38.996Z,-2.35
2019-01-19T09:39:54.267Z,-2.30
2019-01-19T09:43:09.714Z,-2.19
2019-01-19T09:46:25.192Z,-2.09
2019-01-19T09:49:40.865Z,-1.73
2019-01-19T09:52:56.108Z,-1.27
2019-01-19T09:56:11.187Z,-0.88
2019-01-19T09:59:26.576Z,-0.67
2019-01-19T10:02:41.621Z,-0.79
2019-01-19T10:05:57.081Z,-0.92
2019-01-19T10:09:12.641Z,-1.03
2019-01-19T10:12:29.002Z,-0.94
2019-01-19T10:15:44.885Z,-0.67
2019-01-19T10:19:00.273Z,-0.46
2019-01-19T10:22:15.620Z,-0.09
2019-01-19T10:25:31.237Z,0.20
2019-01-19T10:28:49.003Z,0.60
2019-01-19T10:32:05.490Z,0.86
2019-01-19T10:35:40.690Z,0.95
2019-01-19T10:38:55.204Z,1.00
2019-01-19T10:42:08.803Z,1.18
2019-01-19T10:45:23.004Z,1.35
2019-01-19T10:48:36.486Z,1.36
2019-01-19T10:51:50.715Z,1.46
2019-01-19T10:55:04.696Z,1.67
2019-01-19T10:58:18.343Z,1.75
2019-01-19T11:01:31.914Z,1.83
2019-01-19T11:04:45.870Z,2.15
2019-01-19T11:08:04.001Z,2.36
2019-01-19T11:11:15.174Z,2.42
2019-01-19T11:14:28.946Z,2.53
2019-01-19T11:17:42.886Z,2.29
2019-01-19T11:20:56.522Z,2.48
2019-01-19T11:24:10.219Z,2.71
2019-01-19T11:27:24.381Z,2.90
2019-01-19T11:30:38.309Z,2.89
2019-01-19T11:33:51.809Z,2.93
2019-01-19T11:37:05.611Z,2.94
2019-01-19T11:40:21.719Z,2.70
2019-01-19T11:43:35.329Z,2.51
2019-01-19T11:46:49.017Z,2.45
2019-01-19T11:50:03.324Z,2.39
2019-01-19T11:53:17.117Z,2.40
2019-01-19T11:56:31.235Z,2.73
2019-01-19T11:59:44.800Z,3.15
2019-01-19T12:02:58.429Z,3.48
2019-01-19T12:06:11.907Z,3.32
2019-01-19T12:09:25.536Z,3.22
2019-01-19T12:12:39.689Z,3.24
2019-01-19T12:15:53.702Z,3.04
2019-01-19T12:19:07.534Z,3.04
2019-01-19T12:22:21.513Z,3.07
2019-01-19T12:25:35.413Z,3.16
2019-01-19T12:28:49.408Z,2.87
2019-01-19T12:32:03.285Z,2.82
2019-01-19T12:35:17.588Z,2.92
2019-01-19T12:38:31.463Z,2.86
2019-01-19T12:41:44.984Z,2.89
2019-01-19T12:44:58.479Z,2.98
2019-01-19T12:48:12.595Z,2.90
2019-01-19T12:51:26.080Z,2.82
2019-01-19T12:54:39.916Z,2.75
2019-01-19T12:57:53.845Z,2.53
2019-01-19T13:01:07.835Z,2.28
2019-01-19T13:04:21.319Z,2.45
2019-01-19T13:07:35.133Z,2.49
2019-01-19T13:10:53.878Z,2.24
2019-01-19T13:14:07.757Z,2.23
2019-01-19T13:17:53.293Z,2.32
2019-01-19T13:21:49.523Z,2.26
2019-01-19T13:25:29.882Z,2.23
2019-01-19T13:29:46.730Z,2.15
2019-01-19T13:33:45.720Z,2.06
2019-01-19T13:37:20.749Z,1.93
2019-01-19T13:41:05.762Z,1.72
2019-01-19T13:44:57.424Z,1.72
2019-01-19T13:48:50.396Z,1.83
2019-01-19T13:52:58.590Z,1.76
2019-01-19T13:56:48.171Z,1.92
2019-01-19T14:00:41.822Z,2.04
2019-01-19T14:04:14.080Z,1.98
2019-01-19T14:08:15.371Z,1.97
2019-01-19T14:12:01.134Z,1.98
2019-01-19T14:15:36.837Z,1.94
2019-01-19T14:19:41.185Z,1.79
2019-01-19T14:23:36.084Z,1.72
2019-01-19T14:27:25.883Z,1.72
2019-01-19T14:31:10.097Z,1.55
2019-01-19T14:35:11.075Z,1.57
2019-01-19T14:38:37.197Z,1.57
2019-01-19T14:42:33.245Z,1.32
2019-01-19T14:46:03.477Z,1.24
2019-01-19T14:50:14.562Z,1.25
2019-01-19T14:54:07.408Z,1.23
2019-01-19T14:57:58.091Z,1.31
2019-01-19T15:02:06.827Z,1.23
2019-01-19T15:05:45.953Z,1.16
2019-01-19T15:09:11.320Z,1.08
2019-01-19T15:12:56.158Z,1.03
2019-01-19T15:16:53.114Z,0.99
2019-01-19T15:20:25.716Z,0.84
2019-01-19T15:24:18.002Z,0.73
2019-01-19T15:28:06.883Z,0.63
2019-01-19T15:31:41.881Z,0.58
2019-01-19T15:35:28.051Z,0.41
2019-01-19T15:39:27.627Z,0.24
2019-01-19T15:43:32.342Z,0.14
2019-01-19T15:46:57.766Z,-0.01
2019-01-19T15:50:58.275Z,-0.20
2019-01-19T15:54:27.703Z,-0.28
2019-01-19T15:58:06.797Z,-0.47
2019-01-19T16:01:55.976Z,-0.61
2019-01-19T16:06:06.251Z,-0.73
2019-01-19T16:09:54.044Z,-0.77
2019-01-19T16:13:55.813Z,-0.85
2019-01-19T16:17:51.452Z,-0.96
2019-01-19T16:21:26.424Z,-1.16
2019-01-19T16:25:05.890Z,-1.32
2019-01-19T16:29:02.414Z,-1.41
2019-01-19T16:33:07.135Z,-1.66
2019-01-19T16:37:07.426Z,-1.74
2019-01-19T16:41:17.346Z,-1.82
2019-01-19T16:45:04.085Z,-1.88
2019-01-19T16:49:11.693Z,-1.97
2019-01-19T16:52:40.773Z,-2.04
2019-01-19T16:56:30.024Z,-2.09
2019-01-19T16:59:55.856Z,-2.18
2019-01-19T17:03:35.173Z,-2.29
2019-01-19T17:07:24.754Z,-2.37
2019-01-19T17:10:49.819Z,-2.46
2019-01-19T17:14:21.161Z,-2.62
2019-01-19T17:18:14.656Z,-2.65
2019-01-19T17:21:58.569Z,-2.68
2019-01-19T17:25:44.152Z,-2.69
2019-01-19T17:29:39.411Z,-2.74
2019-01-19T17:33:01.190Z,-2.83
2019-01-19T17:36:39.270Z,-2.89
2019-01-19T17:40:20.670Z,-2.99
2019-01-19T17:44:25.305Z,-3.15
2019-01-19T17:48:10.667Z,-3.19
2019-01-19T17:52:08.188Z,-3.20
2019-01-19T17:55:41.376Z,-3.23
2019-01-19T17:59:34.798Z,-3.22
2019-01-19T18:03:30.405Z,-3.21
2019-01-19T18:07:06.791Z,-3.36
2019-01-19T18:10:45.921Z,-3.44
2019-01-19T18:14:29.019Z,-3.62
2019-01-19T18:18:07.265Z,-3.58
2019-01-19T18:21:54.497Z,-3.61
2019-01-19T18:25:24.047Z,-3.69
2019-01-19T18:29:08.031Z,-3.74
2019-01-19T18:33:07.259Z,-3.72
2019-01-19T18:36:56.738Z,-3.76
2019-01-19T18:40:35.898Z,-3.79
2019-01-19T18:44:00.097Z,-3.89
2019-01-19T18:47:26.036Z,-3.87
2019-01-19T18:51:09.630Z,-3.82
2019-01-19T18:55:00.928Z,-3.84
2019-01-19T18:58:41.356Z,-3.89
2019-01-19T19:02:09.266Z,-3.96
2019-01-19T19:05:50.432Z,-4.04
2019-01-19T19:09:39.095Z,-4.11
2019-01-19T19:13:13.340Z,-4.14
2019-01-19T19:16:47.860Z,-4.23
2019-01-19T19:20:34.184Z,-4.27
2019-01-19T19:24:25.811Z,-4.26
2019-01-19T19:28:12.713Z,-4.31
2019-01-19T19:31:58.000Z,-4.47
2019-01-19T19:35:39.595Z,-4.61
2019-01-19T19:39:27.010Z,-4.70
2019-01-19T19:43:05.284Z,-4.74
2019-01-19T19:46:49.616Z,-4.72
2019-01-19T19:50:51.133Z,-4.74
2019-01-19T19:54:04.856Z,-4.74
2019-01-19T19:57:19.248Z,-4.75
2019-01-19T20:00:32.965Z,-4.71
2019-01-19T20:03:46.929Z,-4.73
2019-01-19T20:07:00.770Z,-4.78
2019-01-19T20:10:17.222Z,-4.82
2019-01-19T20:13:30.003Z,-4.88
2019-01-19T20:16:43.646Z,-4.91
2019-01-19T20:19:59.250Z,-4.89
2019-01-19T20:23:13.322Z,-5.00
2019-01-19T20:26:27.089Z,-4.97
2019-01-19T20:29:40.808Z,-5.16
2019-01-19T20:32:54.999Z,-5.31
2019-01-19T20:36:09.104Z,-5.32
2019-01-19T20:39:23.044Z,-5.20
2019-01-19T20:42:37.016Z,-5.11
2019-01-19T20:45:50.743Z,-5.08
2019-01-19T20:49:04.371Z,-5.09
2019-01-19T20:52:18.523Z,-5.14
2019-01-19T20:55:32.708Z,-5.22
2019-01-19T20:58:46.619Z,-5.24
2019-01-19T21:02:00.137Z,-5.20
2019-01-19T21:05:14.093Z,-5.26
2019-01-19T21:08:27.664Z,-5.32
2019-01-19T21:11:41.535Z,-5.36
2019-01-19T21:14:55.167Z,-5.44
2019-01-19T21:18:09.093Z,-5.47
2019-01-19T21:21:23.601Z,-5.44
2019-01-19T21:24:37.840Z,-5.45
2019-01-19T21:27:51.359Z,-5.47
2019-01-19T21:31:05.037Z,-5.56
2019-01-19T21:34:18.538Z,-5.63
2019-01-19T21:37:32.044Z,-5.69
2019-01-19T21:40:45.841Z,-5.69
2019-01-19T21:43:59.455Z,-5.69
2019-01-19T21:47:13.330Z,-5.68
2019-01-19T21:50:26.911Z,-5.72
2019-01-19T21:53:40.532Z,-5.78
2019-01-19T21:56:53.996Z,-5.83
2019-01-19T22:00:10.475Z,-5.86
2019-01-19T22:03:23.995Z,-5.99
2019-01-19T22:06:37.599Z,-6.04
2019-01-19T22:09:51.132Z,-6.07
2019-01-19T22:13:05.024Z,-6.13
2019-01-19T22:16:18.595Z,-6.14
2019-01-19T22:19:32.224Z,-6.16
2019-01-19T22:22:46.248Z,-6.09
2019-01-19T22:26:00.213Z,-6.17
2019-01-19T22:29:14.390Z,-6.25
2019-01-19T22:32:27.865Z,-6.27
2019-01-19T22:35:42.334Z,-6.31
2019-01-19T22:38:55.822Z,-6.30
2019-01-19T22:42:09.294Z,-6.30
2019-01-19T22:45:23.138Z,-6.39
2019-01-19T22:48:36.630Z,-6.42
2019-01-19T22:51:50.202Z,-6.38
2019-01-19T22:55:04.620Z,-6.36
2019-01-19T22:58:18.149Z,-6.36
2019-01-19T23:04:55.559Z,-6.34
2019-01-19T23:08:10.899Z,-6.30
2019-01-19T23:11:33.644Z,-6.33
2019-01-19T23:14:44.096Z,-6.38
2019-01-19T23:17:59.595Z,-6.40
2019-01-19T23:21:15.150Z,-6.40
2019-01-19T23:24:30.514Z,-6.41
2019-01-19T23:27:45.760Z,-6.43
2019-01-19T23:31:01.133Z,-6.43
2019-01-19T23:34:16.778Z,-6.45
2019-01-19T23:37:32.122Z,-6.48
2019-01-19T23:40:47.677Z,-6.56
2019-01-19T23:44:03.179Z,-6.57
2019-01-19T23:47:18.388Z,-6.72
2019-01-19T23:50:33.753Z,-6.81
2019-01-19T23:53:49.230Z,-6.79
2019-01-19T23:57:04.506Z,-6.73
